Time;durP1;ratioP1;P1;durP2;ratioP2;P2;SDS_P1;SDS_P2;PMS_P1;PMS_P2;Temp;Humidity;BMP_temperature;BMP_pressure;BME280_temperature;BME280_humidity;BME280_pressure;Samples;Min_cycle;Max_cycle;Signal;HPM_P1;HPM_P2
2021/04/26 00:00:06;;;;;;;9.70;3.90;;;;;;;6.38;61.61;96185.63;1052045;28;20040;-71
2021/04/26 00:00:36;;;;;;;11.43;3.83;;;;;;;6.39;61.63;96181.94;1052229;28;20516;-69
2021/04/26 00:01:07;;;;;;;6.60;3.77;;;;;;;6.35;61.79;96184.28;1052357;28;20032;-69
2021/04/26 00:01:37;;;;;;;6.87;3.77;;;;;;;6.40;61.94;96184.38;1048061;28;20081;-69
2021/04/26 00:02:07;;;;;;;9.57;3.77;;;;;;;6.38;61.65;96182.97;1043590;28;20078;-69
2021/04/26 00:02:38;;;;;;;7.37;3.30;;;;;;;6.35;61.70;96180.81;1043975;28;20025;-69
2021/04/26 00:03:08;;;;;;;7.63;3.50;;;;;;;6.37;61.82;96178.72;1044096;28;20025;-70
2021/04/26 00:03:39;;;;;;;12.80;4.43;;;;;;;6.33;62.21;96186.34;1048090;28;20028;-69
2021/04/26 00:04:09;;;;;;;8.77;3.57;;;;;;;6.33;62.23;96181.03;1050998;28;20036;-70
2021/04/26 00:04:39;;;;;;;8.17;3.77;;;;;;;6.30;62.38;96180.72;1052463;28;20396;-70
2021/04/26 00:05:11;;;;;;;7.17;3.63;;;;;;;6.30;62.54;96181.53;1052626;28;20499;-70
2021/04/26 00:05:42;;;;;;;12.85;4.03;;;;;;;6.22;62.94;96176.59;1052511;28;20023;-70
2021/04/26 00:06:12;;;;;;;10.90;4.00;;;;;;;6.22;62.85;96179.25;1052449;28;20032;-69
2021/04/26 00:06:43;;;;;;;8.73;3.87;;;;;;;6.20;62.82;96182.13;1052518;28;20427;-69
2021/04/26 00:07:13;;;;;;;10.17;3.67;;;;;;;6.10;62.91;96179.31;1052279;28;20024;-69
2021/04/26 00:07:43;;;;;;;9.03;4.30;;;;;;;6.13;63.13;96176.16;1052295;28;20028;-71
2021/04/26 00:08:14;;;;;;;7.27;3.23;;;;;;;6.13;63.26;96178.81;1052340;28;20039;-70
2021/04/26 00:08:44;;;;;;;8.03;3.57;;;;;;;6.11;63.55;96180.09;1052185;28;20491;-70
2021/04/26 00:09:15;;;;;;;11.90;3.93;;;;;;;6.15;63.35;96176.75;1052512;28;20469;-69
2021/04/26 00:09:45;;;;;;;10.37;4.40;;;;;;;6.14;63.52;96175.13;1052293;28;20012;-70
2021/04/26 00:10:15;;;;;;;7.47;4.00;;;;;;;6.17;63.25;96177.28;1052656;28;20473;-70
2021/04/26 00:10:46;;;;;;;11.33;3.87;;;;;;;6.18;63.29;96184.22;1052539;28;20114;-70
2021/04/26 00:11:16;;;;;;;7.97;3.87;;;;;;;6.21;63.31;96181.09;1052339;28;20020;-69
2021/04/26 00:11:47;;;;;;;10.17;3.43;;;;;;;6.23;63.19;96181.66;1052104;28;20057;-70
2021/04/26 00:12:17;;;;;;;8.00;3.40;;;;;;;6.23;63.00;96175.53;1052263;28;20028;-71
2021/04/26 00:12:48;;;;;;;8.87;4.03;;;;;;;6.19;63.42;96174.41;1051916;28;20037;-70
2021/04/26 00:13:18;;;;;;;8.47;3.97;;;;;;;6.19;63.59;96171.75;1052532;28;20085;-69
2021/04/26 00:13:48;;;;;;;9.90;4.30;;;;;;;6.15;63.42;96179.41;1052498;28;20094;-70
2021/04/26 00:14:19;;;;;;;10.53;4.23;;;;;;;6.08;63.80;96170.75;1052585;28;20036;-70
2021/04/26 00:14:50;;;;;;;11.73;4.23;;;;;;;6.06;63.98;96167.53;1052413;28;20059;-69
2021/04/26 00:15:22;;;;;;;9.67;3.90;;;;;;;6.09;63.96;96172.38;1052396;28;20048;-70
2021/04/26 00:15:53;;;;;;;8.82;4.03;;;;;;;6.12;63.81;96168.44;1052516;28;20063;-70
2021/04/26 00:16:23;;;;;;;9.83;4.37;;;;;;;6.11;63.83;96172.13;1052571;28;20035;-70
2021/04/26 00:16:54;;;;;;;11.03;4.43;;;;;;;6.08;63.99;96169.94;1052531;28;20065;-70
2021/04/26 00:17:24;;;;;;;7.77;3.93;;;;;;;6.04;64.11;96171.47;1052539;28;20031;-71
2021/04/26 00:17:55;;;;;;;9.60;3.77;;;;;;;6.05;64.38;96160.63;1052520;28;20024;-69
2021/04/26 00:18:25;;;;;;;10.47;4.30;;;;;;;6.02;64.09;96169.06;1052262;28;20111;-70
2021/04/26 00:18:55;;;;;;;5.57;3.50;;;;;;;5.99;64.46;96162.38;1052244;28;20102;-70
2021/04/26 00:19:26;;;;;;;8.63;3.87;;;;;;;5.96;64.25;96170.00;1048072;28;20147;-70
2021/04/26 00:19:56;;;;;;;11.97;3.93;;;;;;;6.02;64.56;96162.94;1046024;28;20025;-71
2021/04/26 00:20:29;;;;;;;9.97;4.50;;;;;;;6.02;64.34;96160.28;1048087;28;20028;-70
2021/04/26 00:20:59;;;;;;;9.40;4.28;;;;;;;6.03;64.37;96168.00;1048039;28;20111;-70
2021/04/26 00:21:30;;;;;;;8.53;4.13;;;;;;;6.02;64.46;96163.75;1048274;28;20025;-70
2021/04/26 00:22:00;;;;;;;8.80;3.93;;;;;;;5.94;64.91;96161.47;1048330;28;20009;-70
2021/04/26 00:22:30;;;;;;;8.93;4.60;;;;;;;5.94;64.78;96156.19;1048393;28;20469;-71
2021/04/26 00:23:01;;;;;;;11.07;4.67;;;;;;;5.95;64.70;96157.78;1048344;28;20016;-70
2021/04/26 00:23:31;;;;;;;11.60;4.00;;;;;;;5.97;64.58;96161.00;1048351;28;20410;-70
2021/04/26 00:24:02;;;;;;;8.73;3.93;;;;;;;5.99;64.37;96156.28;1048337;28;20108;-71
2021/04/26 00:24:32;;;;;;;8.77;4.27;;;;;;;5.94;65.01;96153.53;1047884;28;20039;-70
2021/04/26 00:25:06;;;;;;;7.93;4.00;;;;;;;5.93;64.92;96155.34;1047900;28;20385;-70
2021/04/26 00:25:36;;;;;;;9.82;4.40;;;;;;;5.95;64.76;96150.63;1048056;28;20021;-70
2021/04/26 00:26:07;;;;;;;10.47;4.40;;;;;;;5.92;65.09;96153.75;1048041;28;20025;-71
2021/04/26 00:26:37;;;;;;;7.43;4.30;;;;;;;5.86;65.10;96146.69;1048062;28;20012;-71
2021/04/26 00:27:07;;;;;;;10.50;4.37;;;;;;;5.80;64.88;96145.00;1048059;28;20025;-71
2021/04/26 00:27:38;;;;;;;9.10;4.90;;;;;;;5.74;65.64;96144.09;1048122;28;20065;-71
2021/04/26 00:28:08;;;;;;;10.87;4.20;;;;;;;5.84;65.01;96143.50;1048076;28;20485;-70
2021/04/26 00:28:39;;;;;;;14.00;4.87;;;;;;;5.79;65.50;96147.91;1048095;28;20020;-70
2021/04/26 00:29:09;;;;;;;9.67;4.70;;;;;;;5.75;65.74;96134.28;1048352;28;20013;-70
2021/04/26 00:29:40;;;;;;;14.40;4.67;;;;;;;5.74;65.50;96138.78;1048314;28;20020;-71
2021/04/26 00:30:15;;;;;;;8.93;3.93;;;;;;;5.78;65.91;96135.66;1052180;28;20020;-70
2021/04/26 00:30:45;;;;;;;9.43;4.30;;;;;;;5.78;65.35;96139.09;1052250;28;20024;-70
2021/04/26 00:31:16;;;;;;;9.07;4.20;;;;;;;5.71;65.53;96130.50;1052230;28;20028;-69
2021/04/26 00:31:46;;;;;;;9.10;4.30;;;;;;;5.67;66.02;96137.31;1052989;28;20384;-69
2021/04/26 00:32:17;;;;;;;8.53;4.50;;;;;;;5.67;66.12;96137.31;1053034;28;20027;-70
2021/04/26 00:32:47;;;;;;;10.17;4.10;;;;;;;5.68;65.81;96134.44;1053342;28;20027;-70
2021/04/26 00:33:17;;;;;;;10.63;4.73;;;;;;;5.70;65.96;96129.69;1053299;28;20043;-69
2021/04/26 00:33:48;;;;;;;8.93;4.60;;;;;;;5.71;65.99;96131.28;1053259;28;20024;-70
2021/04/26 00:34:18;;;;;;;10.40;4.60;;;;;;;5.74;65.74;96128.19;1053257;28;20020;-69
2021/04/26 00:34:49;;;;;;;10.13;3.90;;;;;;;5.70;66.25;96127.03;1053302;28;20042;-70
2021/04/26 00:35:19;;;;;;;11.30;4.67;;;;;;;5.70;65.92;96128.88;1053190;28;20424;-70
2021/04/26 00:35:50;;;;;;;7.90;4.17;;;;;;;5.71;66.21;96126.00;1053293;28;20020;-70
2021/04/26 00:36:20;;;;;;;7.93;4.13;;;;;;;5.76;65.80;96125.28;1053216;28;20012;-70
2021/04/26 00:36:51;;;;;;;7.93;4.10;;;;;;;5.73;66.11;96120.44;1053271;28;20016;-70
2021/04/26 00:37:21;;;;;;;8.50;4.37;;;;;;;5.68;65.93;96121.19;1053264;28;20405;-70
2021/04/26 00:37:52;;;;;;;8.97;4.50;;;;;;;5.66;66.04;96119.78;1053326;28;20050;-70
2021/04/26 00:38:22;;;;;;;12.70;5.07;;;;;;;5.59;66.14;96119.94;1053296;28;20441;-70
2021/04/26 00:38:53;;;;;;;10.87;4.63;;;;;;;5.60;66.23;96113.56;1053323;28;20028;-70
2021/04/26 00:39:23;;;;;;;12.17;4.73;;;;;;;5.58;66.56;96114.84;1053282;28;20020;-70
2021/04/26 00:39:53;;;;;;;8.93;4.37;;;;;;;5.60;66.64;96126.03;1053039;28;20423;-70
2021/04/26 00:40:24;;;;;;;10.67;4.47;;;;;;;5.68;66.18;96120.34;1053242;28;20484;-70
2021/04/26 00:40:54;;;;;;;11.50;4.70;;;;;;;5.68;66.68;96123.00;1053035;28;20091;-71
2021/04/26 00:41:25;;;;;;;10.53;4.53;;;;;;;5.68;66.19;96121.19;1052970;28;20024;-70
2021/04/26 00:41:55;;;;;;;10.10;4.33;;;;;;;5.64;66.45;96122.69;1052901;28;20016;-70
2021/04/26 00:42:26;;;;;;;9.67;4.37;;;;;;;5.64;66.83;96121.88;1053058;28;20586;-71
2021/04/26 00:42:56;;;;;;;7.93;4.40;;;;;;;5.63;66.80;96126.38;1053258;28;20023;-70
2021/04/26 00:43:26;;;;;;;8.40;4.23;;;;;;;5.61;67.13;96117.84;1052990;28;20023;-70
2021/04/26 00:43:57;;;;;;;9.63;4.40;;;;;;;5.57;66.85;96121.19;1052987;28;20020;-69
2021/04/26 00:44:27;;;;;;;10.80;5.20;;;;;;;5.61;67.02;96120.50;1052994;28;20016;-69
2021/04/26 00:44:58;;;;;;;10.63;4.97;;;;;;;5.57;66.72;96126.50;1052726;28;20398;-70
2021/04/26 00:45:29;;;;;;;8.60;4.43;;;;;;;5.54;66.94;96122.47;1053172;28;20020;-69
2021/04/26 00:45:59;;;;;;;12.00;4.78;;;;;;;5.45;67.17;96114.06;1052869;28;20023;-69
2021/04/26 00:46:29;;;;;;;9.70;4.50;;;;;;;5.46;66.99;96120.97;1052944;28;20024;-70
2021/04/26 00:47:00;;;;;;;12.70;4.80;;;;;;;5.51;67.17;96117.63;1053000;28;20051;-70
2021/04/26 00:47:30;;;;;;;10.90;4.67;;;;;;;5.48;66.89;96115.47;1052958;28;20491;-70
2021/04/26 00:48:01;;;;;;;11.83;4.70;;;;;;;5.53;66.76;96120.03;1053268;28;20354;-70
2021/04/26 00:48:31;;;;;;;9.27;4.80;;;;;;;5.46;67.07;96115.69;1053241;28;20008;-70
2021/04/26 00:49:01;;;;;;;7.43;4.30;;;;;;;5.45;67.20;96113.28;1052972;28;20020;-70
2021/04/26 00:49:32;;;;;;;13.87;4.80;;;;;;;5.42;67.51;96121.69;1052921;28;20039;-70
2021/04/26 00:50:11;;;;;;;8.93;4.60;;;;;;;5.40;67.59;96118.47;1052643;28;20020;-71
2021/04/26 00:50:42;;;;;;;9.40;4.47;;;;;;;5.37;67.50;96117.06;1048780;28;20021;-72
2021/04/26 00:51:13;;;;;;;8.10;4.50;;;;;;;5.39;67.49;96119.53;1049080;28;20492;-70
2021/04/26 00:51:43;;;;;;;10.73;4.60;;;;;;;5.41;67.73;96115.56;1049069;28;20032;-70
2021/04/26 00:52:15;;;;;;;10.33;4.37;;;;;;;5.36;67.79;96120.78;1052736;28;20027;-70
2021/04/26 00:52:46;;;;;;;9.30;4.75;;;;;;;5.36;67.71;96114.66;1048747;28;20020;-70
2021/04/26 00:53:16;;;;;;;9.35;4.75;;;;;;;5.39;67.50;96116.88;1048770;28;20020;-70
2021/04/26 00:53:46;;;;;;;11.20;4.67;;;;;;;5.37;67.95;96109.13;1044873;28;20084;-71
2021/04/26 00:54:17;;;;;;;12.37;4.97;;;;;;;5.34;67.95;96106.97;1044569;28;20382;-71
2021/04/26 00:54:47;;;;;;;11.63;5.27;;;;;;;5.41;67.55;96115.56;1048759;28;20476;-70
2021/04/26 00:55:20;;;;;;;8.87;4.57;;;;;;;5.41;67.43;96114.78;1044663;28;20028;-71
2021/04/26 00:55:50;;;;;;;7.10;4.22;;;;;;;5.38;67.81;96109.97;1049040;28;20568;-71
2021/04/26 00:56:20;;;;;;;9.83;4.50;;;;;;;5.35;67.94;96115.72;1048665;28;20043;-70
2021/04/26 00:56:51;;;;;;;9.23;4.50;;;;;;;5.32;67.76;96124.13;1049092;28;20059;-71
2021/04/26 00:57:22;;;;;;;9.95;4.65;;;;;;;5.33;68.10;96118.59;1048645;28;20115;-70
2021/04/26 00:57:53;;;;;;;10.83;4.60;;;;;;;5.30;67.95;96115.59;1048836;28;20024;-71
2021/04/26 00:58:23;;;;;;;9.98;4.72;;;;;;;5.27;67.74;96105.47;1048475;28;20032;-70
2021/04/26 00:58:53;;;;;;;8.27;4.10;;;;;;;5.21;67.96;96118.59;1048555;28;20017;-70
2021/04/26 00:59:24;;;;;;;11.57;4.47;;;;;;;5.29;68.18;96114.00;1048626;28;20509;-71
2021/04/26 00:59:54;;;;;;;10.90;4.20;;;;;;;5.26;68.20;96114.47;1047703;28;20025;-71
2021/04/26 01:00:25;;;;;;;11.67;5.33;;;;;;;5.27;68.01;96108.91;1048684;28;20017;-70
2021/04/26 01:00:55;;;;;;;10.63;4.80;;;;;;;5.27;68.23;96106.25;1044750;28;20067;-70
2021/04/26 01:01:26;;;;;;;10.17;4.63;;;;;;;5.18;68.45;96105.84;1048758;28;20043;-70
2021/04/26 01:01:57;;;;;;;10.43;4.67;;;;;;;5.20;68.38;96108.25;1052815;28;20031;-70
2021/04/26 01:02:27;;;;;;;7.17;4.67;;;;;;;5.21;68.07;96110.66;1052893;28;20016;-71
2021/04/26 01:02:57;;;;;;;8.60;5.10;;;;;;;5.21;68.00;96101.91;1053257;28;20016;-71
2021/04/26 01:03:28;;;;;;;11.20;5.10;;;;;;;5.25;68.30;96097.75;1053180;28;20020;-71
2021/04/26 01:03:58;;;;;;;11.57;4.87;;;;;;;5.21;68.27;96092.09;1053254;28;20465;-71
2021/04/26 01:04:32;;;;;;;13.23;5.17;;;;;;;5.23;68.04;96102.50;1052911;28;20016;-70
2021/04/26 01:05:06;;;;;;;9.55;4.65;;;;;;;5.15;68.14;96098.34;1052734;28;20039;-71
2021/04/26 01:05:36;;;;;;;9.93;4.57;;;;;;;5.12;68.46;96096.19;1052859;28;20093;-71
2021/04/26 01:06:07;;;;;;;8.97;4.80;;;;;;;5.17;68.37;96091.00;1052985;28;20024;-71
2021/04/26 01:06:37;;;;;;;9.73;4.70;;;;;;;5.21;68.44;96097.41;1053206;28;20035;-71
2021/04/26 01:07:07;;;;;;;12.37;4.77;;;;;;;5.21;68.08;96097.41;1048598;28;20421;-70
2021/04/26 01:07:38;;;;;;;13.47;4.67;;;;;;;5.17;68.13;96096.28;1048649;28;20465;-70
2021/04/26 01:08:09;;;;;;;12.38;5.13;;;;;;;5.22;68.46;96096.41;1048737;28;20081;-71
2021/04/26 01:08:39;;;;;;;13.03;4.90;;;;;;;5.17;68.09;96096.28;1048782;28;20032;-71
2021/04/26 01:09:10;;;;;;;9.37;4.77;;;;;;;5.19;68.44;96106.66;1053192;28;20024;-71
2021/04/26 01:09:40;;;;;;;14.97;4.80;;;;;;;5.13;68.38;96100.44;1053140;28;20469;-71
2021/04/26 01:10:12;;;;;;;14.27;5.43;;;;;;;5.10;68.35;96095.59;1052682;28;20032;-70
2021/04/26 01:10:42;;;;;;;10.20;4.97;;;;;;;5.08;68.83;96097.69;1048652;28;20101;-70
2021/04/26 01:11:13;;;;;;;7.70;4.30;;;;;;;5.06;68.58;96091.78;1044515;28;20113;-70
2021/04/26 01:12:11;;;;;;;11.10;4.90;;;;;;;5.09;68.47;96093.97;1044812;28;20020;-70
2021/04/26 01:13:02;;;;;;;8.43;4.30;;;;;;;5.08;68.76;96094.22;1052317;28;20090;-70
2021/04/26 01:14:00;;;;;;;10.68;4.90;;;;;;;5.08;68.78;96087.06;1052845;28;20059;-71
2021/04/26 01:14:37;;;;;;;7.45;4.28;;;;;;;5.07;68.53;96088.13;1048580;28;20024;-70
2021/04/26 01:15:32;;;;;;;13.70;5.25;;;;;;;5.07;68.61;96071.44;1045919;28;20113;-69
2021/04/26 01:16:07;;;;;;;10.73;4.93;;;;;;;5.13;68.50;96078.44;1048624;28;20020;-70
2021/04/26 01:16:42;;;;;;;11.77;5.18;;;;;;;5.14;68.24;96072.91;1052813;28;20020;-70
2021/04/26 01:17:22;;;;;;;9.30;5.05;;;;;;;5.04;68.48;96074.53;1053231;28;20020;-71
2021/04/26 01:18:05;;;;;;;9.18;4.97;;;;;;;5.05;68.85;96073.47;1044461;28;20115;-70
2021/04/26 01:19:00;;;;;;;10.88;5.18;;;;;;;5.01;68.92;96065.19;1045541;28;20163;-70
2021/04/26 01:19:54;;;;;;;10.57;4.88;;;;;;;5.00;68.86;96068.06;1043129;28;20052;-69
2021/04/26 01:20:50;;;;;;;10.50;4.90;;;;;;;5.03;68.47;96073.72;1052729;28;20024;-70
2021/04/26 01:21:53;;;;;;;9.05;4.97;;;;;;;5.02;68.89;96066.03;1052990;28;20028;-70
2021/04/26 01:23:01;;;;;;;11.38;4.80;;;;;;;5.00;68.77;96068.06;1052874;28;20449;-70
2021/04/26 01:24:11;;;;;;;10.55;4.85;;;;;;;4.96;68.58;96067.72;1052740;28;20083;-70
2021/04/26 01:25:07;;;;;;;9.55;4.57;;;;;;;4.98;68.72;96064.88;1052962;28;20552;-70
2021/04/26 01:25:38;;;;;;;10.48;4.95;;;;;;;4.87;68.85;96066.50;1053096;28;20020;-71
2021/04/26 01:26:09;;;;;;;11.73;5.40;;;;;;;4.93;69.30;96065.56;1048721;28;20029;-71
2021/04/26 01:27:09;;;;;;;15.73;4.90;;;;;;;4.92;69.28;96063.97;1040367;28;20386;-70
2021/04/26 01:28:22;;;;;;;11.75;5.30;;;;;;;4.88;69.00;96055.66;1040275;28;20021;-70
2021/04/26 01:29:11;;;;;;;10.43;5.15;;;;;;;4.86;69.13;96064.84;1048185;28;20036;-70
2021/04/26 01:30:24;;;;;;;9.90;5.07;;;;;;;4.80;69.24;96061.28;1048896;28;20035;-70
2021/04/26 01:30:58;;;;;;;13.18;4.93;;;;;;;4.77;69.58;96061.78;1024043;29;20035;-70
2021/04/26 01:31:37;;;;;;;11.70;5.50;;;;;;;4.80;69.47;96056.00;1023850;29;20032;-70
2021/04/26 01:32:30;;;;;;;11.85;5.40;;;;;;;4.77;69.50;96056.47;1019890;29;20315;-70
2021/04/26 01:33:06;;;;;;;10.57;4.80;;;;;;;4.76;69.54;96062.00;1048518;28;20020;-70
2021/04/26 01:33:41;;;;;;;12.40;5.25;;;;;;;4.80;69.67;96057.84;1044459;28;20123;-70
2021/04/26 01:34:11;;;;;;;8.75;4.68;;;;;;;4.73;69.57;96055.31;1044338;28;20017;-70
2021/04/26 01:34:42;;;;;;;15.00;5.20;;;;;;;4.75;69.68;96055.88;1032088;28;20023;-70
2021/04/26 01:35:14;;;;;;;10.57;5.17;;;;;;;4.78;69.01;96049.34;1032149;28;20018;-70
2021/04/26 01:35:44;;;;;;;11.75;5.10;;;;;;;4.74;69.17;96059.56;1032068;28;20018;-70
2021/04/26 01:36:17;;;;;;;11.07;5.57;;;;;;;4.73;69.44;96059.81;1036453;28;20054;-70
2021/04/26 01:36:47;;;;;;;11.75;5.05;;;;;;;4.68;69.66;96063.16;1036197;28;20022;-70
2021/04/26 01:37:18;;;;;;;12.33;5.57;;;;;;;4.66;69.75;96052.81;1032348;28;20038;-69
2021/04/26 01:37:50;;;;;;;8.97;4.90;;;;;;;4.64;69.99;96054.06;1036912;28;20021;-69
2021/04/26 01:38:25;;;;;;;11.35;4.95;;;;;;;4.68;69.35;96050.72;1036543;28;20029;-70
2021/04/26 01:38:55;;;;;;;10.48;5.05;;;;;;;4.69;69.79;96044.38;1040779;28;20092;-69
2021/04/26 01:39:26;;;;;;;9.75;4.80;;;;;;;4.72;69.30;96053.72;1044442;28;20119;-70
2021/04/26 01:39:56;;;;;;;14.13;5.20;;;;;;;4.67;69.47;96051.75;1041701;28;20021;-70
2021/04/26 01:40:27;;;;;;;10.77;5.10;;;;;;;4.77;69.30;96053.03;1044299;28;20024;-69
2021/04/26 01:40:57;;;;;;;12.20;5.30;;;;;;;4.71;69.25;96052.13;1044264;28;20020;-69
2021/04/26 01:41:28;;;;;;;10.27;5.00;;;;;;;4.69;69.66;96051.53;1036442;28;20022;-70
2021/04/26 01:41:59;;;;;;;11.37;5.37;;;;;;;4.67;70.05;96050.97;1036362;28;20116;-69
2021/04/26 01:42:29;;;;;;;11.17;5.10;;;;;;;4.68;69.27;96060.50;1036031;28;20029;-69
2021/04/26 01:43:00;;;;;;;12.47;5.23;;;;;;;4.59;69.47;96057.41;1036264;28;20068;-69
2021/04/26 01:43:30;;;;;;;10.52;5.13;;;;;;;4.62;69.47;96053.50;1035944;28;20083;-70
2021/04/26 01:44:01;;;;;;;10.60;5.40;;;;;;;4.63;69.21;96050.59;1036109;28;20022;-70
2021/04/26 01:44:31;;;;;;;13.63;5.03;;;;;;;4.64;69.35;96048.75;1036216;28;20033;-69
2021/04/26 01:45:04;;;;;;;9.00;5.20;;;;;;;4.65;69.68;96058.31;1040327;28;20037;-70
2021/04/26 01:45:34;;;;;;;16.50;4.90;;;;;;;4.65;69.46;96053.81;1040541;28;20087;-69
2021/04/26 01:46:06;;;;;;;9.00;4.73;;;;;;;4.66;69.67;96052.81;1040677;28;20128;-70
2021/04/26 01:46:37;;;;;;;12.13;5.40;;;;;;;4.63;69.46;96055.09;1036593;28;20498;-70
2021/04/26 01:47:07;;;;;;;11.53;5.63;;;;;;;4.62;69.37;96062.25;1036359;28;20025;-70
2021/04/26 01:47:37;;;;;;;12.40;5.10;;;;;;;4.62;69.53;96061.44;1036541;28;20578;-70
2021/04/26 01:48:08;;;;;;;14.00;5.20;;;;;;;4.61;69.74;96054.53;1040646;28;20024;-70
2021/04/26 01:48:40;;;;;;;11.27;5.00;;;;;;;4.62;69.82;96049.00;1040016;28;20437;-70
2021/04/26 01:49:11;;;;;;;11.60;5.00;;;;;;;4.62;69.45;96048.19;1044380;28;20047;-71
2021/04/26 01:49:41;;;;;;;11.27;4.93;;;;;;;4.62;69.40;96045.56;1040152;28;20018;-70
2021/04/26 01:50:12;;;;;;;8.50;4.93;;;;;;;4.63;69.75;96047.16;1036545;28;20014;-70
2021/04/26 01:50:42;;;;;;;12.53;5.30;;;;;;;4.59;69.54;96051.28;1032151;28;20030;-70
2021/04/26 01:51:13;;;;;;;11.23;5.07;;;;;;;4.57;69.46;96042.78;1036321;28;20014;-70
2021/04/26 01:51:43;;;;;;;9.60;4.97;;;;;;;4.58;69.70;96047.03;1032196;28;20415;-69
2021/04/26 01:52:13;;;;;;;8.17;4.63;;;;;;;4.56;69.75;96044.63;1032250;28;20022;-70
2021/04/26 01:52:44;;;;;;;11.97;4.90;;;;;;;4.49;69.64;96040.47;1036113;28;20014;-69
2021/04/26 01:53:18;;;;;;;10.17;5.00;;;;;;;4.50;70.12;96037.59;1036247;28;20049;-69
2021/04/26 01:53:48;;;;;;;12.73;5.13;;;;;;;4.53;69.62;96042.44;1032657;28;20050;-70
2021/04/26 01:54:19;;;;;;;9.77;5.00;;;;;;;4.57;69.73;96040.94;1031980;28;20027;-70
2021/04/26 01:54:50;;;;;;;11.37;5.13;;;;;;;4.53;69.57;96039.78;1036168;28;20018;-70
2021/04/26 01:55:21;;;;;;;10.40;5.22;;;;;;;4.54;70.08;96037.94;1032100;28;20069;-70
2021/04/26 01:55:55;;;;;;;12.90;5.63;;;;;;;4.56;69.93;96033.25;1036355;28;20071;-70
2021/04/26 01:56:25;;;;;;;10.93;5.35;;;;;;;4.55;70.01;96035.06;1041764;28;20453;-70
2021/04/26 01:56:55;;;;;;;8.47;5.03;;;;;;;4.55;69.97;96028.97;1045080;28;20029;-70
2021/04/26 01:57:27;;;;;;;10.97;5.23;;;;;;;4.53;69.72;96036.34;1040256;28;20014;-69
2021/04/26 01:57:58;;;;;;;9.40;5.03;;;;;;;4.56;69.34;96034.06;1036186;28;20104;-69
2021/04/26 01:58:29;;;;;;;10.60;5.18;;;;;;;4.58;69.33;96033.81;1036179;28;20025;-72
2021/04/26 01:58:59;;;;;;;11.80;5.32;;;;;;;4.55;69.74;96040.34;1032700;28;20491;-70
2021/04/26 01:59:32;;;;;;;9.43;5.10;;;;;;;4.53;69.98;96031.84;1040223;28;20021;-70
2021/04/26 02:00:10;;;;;;;11.32;4.78;;;;;;;4.59;69.03;96030.13;1036085;28;20018;-70
2021/04/26 02:00:40;;;;;;;9.27;5.15;;;;;;;4.53;69.68;96037.16;1038895;28;20029;-70
2021/04/26 02:01:15;;;;;;;12.60;5.23;;;;;;;4.58;69.32;96028.50;1045714;28;20017;-71
2021/04/26 02:01:46;;;;;;;10.93;4.93;;;;;;;4.57;69.34;96033.00;1048562;28;20021;-70
2021/04/26 02:02:16;;;;;;;11.13;5.10;;;;;;;4.49;69.49;96036.00;1048793;28;20017;-70
2021/04/26 02:02:47;;;;;;;10.63;4.90;;;;;;;4.49;69.68;96035.19;1048462;28;20043;-70
2021/04/26 02:03:21;;;;;;;10.23;5.23;;;;;;;4.40;69.85;96038.19;1040084;28;20025;-70
2021/04/26 02:03:59;;;;;;;12.73;5.40;;;;;;;4.40;69.79;96027.59;1036016;28;20022;-70
2021/04/26 02:04:31;;;;;;;10.85;4.85;;;;;;;4.42;69.99;96028.16;1037746;28;20483;-70
2021/04/26 02:05:02;;;;;;;9.32;5.05;;;;;;;4.43;69.89;96023.69;1039757;28;20010;-70
2021/04/26 02:05:32;;;;;;;13.23;5.37;;;;;;;4.38;69.97;96029.66;1041524;28;20501;-71
2021/04/26 02:06:02;;;;;;;11.43;5.40;;;;;;;4.43;70.01;96032.41;1040135;28;20025;-70
2021/04/26 02:06:33;;;;;;;8.47;4.93;;;;;;;4.41;70.01;96028.41;1040276;28;20054;-70
2021/04/26 02:07:03;;;;;;;14.97;5.40;;;;;;;4.36;69.66;96023.00;1040164;28;20030;-69
2021/04/26 02:07:35;;;;;;;12.30;5.07;;;;;;;4.38;69.88;96029.66;1040094;28;20021;-68
2021/04/26 02:08:05;;;;;;;11.00;5.25;;;;;;;4.39;69.66;96023.31;1036086;28;20025;-69
2021/04/26 02:08:36;;;;;;;16.03;5.83;;;;;;;4.33;69.85;96034.84;1033002;28;20061;-69
2021/04/26 02:09:06;;;;;;;10.33;5.30;;;;;;;4.31;70.15;96034.28;1032220;28;20038;-68
2021/04/26 02:09:40;;;;;;;10.40;5.03;;;;;;;4.33;70.09;96037.47;1036020;28;20037;-70
2021/04/26 02:10:11;;;;;;;10.52;5.50;;;;;;;4.33;69.69;96040.13;1036572;28;20029;-69
2021/04/26 02:10:41;;;;;;;12.73;5.50;;;;;;;4.28;70.40;96032.06;1041172;28;20549;-70
2021/04/26 02:11:11;;;;;;;10.90;5.47;;;;;;;4.28;70.03;96040.00;1048964;28;20119;-69
2021/04/26 02:11:42;;;;;;;10.17;4.97;;;;;;;4.25;70.27;96034.34;1048776;28;20069;-69
2021/04/26 02:12:13;;;;;;;13.07;4.53;;;;;;;4.27;70.30;96032.31;1048421;28;20556;-68
2021/04/26 02:12:44;;;;;;;12.45;5.50;;;;;;;4.27;70.49;96037.59;1048455;28;20031;-69
2021/04/26 02:13:16;;;;;;;10.23;5.22;;;;;;;4.31;70.09;96033.47;1044534;28;20108;-70
2021/04/26 02:13:47;;;;;;;7.85;4.60;;;;;;;4.24;70.00;96030.09;1044536;28;20025;-69
2021/04/26 02:14:17;;;;;;;17.00;6.00;;;;;;;4.23;70.61;96039.88;1048424;28;20052;-69
2021/04/26 02:14:48;;;;;;;13.70;5.20;;;;;;;4.23;70.74;96037.25;1040402;28;20089;-69
2021/04/26 02:15:19;;;;;;;11.63;5.03;;;;;;;4.20;70.23;96027.13;1044401;28;20037;-70
2021/04/26 02:15:51;;;;;;;11.13;5.20;;;;;;;4.24;70.78;96044.13;1048375;28;20492;-70
2021/04/26 02:16:22;;;;;;;12.95;5.88;;;;;;;4.26;70.52;96039.44;1045078;28;20028;-70
2021/04/26 02:16:52;;;;;;;14.70;5.97;;;;;;;4.24;70.31;96036.19;1052586;28;20028;-70
2021/04/26 02:17:23;;;;;;;11.80;5.50;;;;;;;4.25;70.50;96039.66;1052560;28;20103;-70
2021/04/26 02:17:54;;;;;;;14.27;4.90;;;;;;;4.27;70.01;96035.75;1043929;28;20581;-70
2021/04/26 02:18:24;;;;;;;9.67;4.97;;;;;;;4.28;70.18;96037.34;1040317;28;20033;-70
2021/04/26 02:18:55;;;;;;;8.13;5.00;;;;;;;4.24;70.39;96043.34;1039592;28;20040;-70
2021/04/26 02:19:25;;;;;;;23.30;5.33;;;;;;;4.25;70.13;96037.00;1040404;28;20044;-70
2021/04/26 02:19:55;;;;;;;10.67;5.50;;;;;;;4.18;70.51;96039.75;1044234;28;20131;-70
2021/04/26 02:20:26;;;;;;;11.53;4.90;;;;;;;4.21;70.10;96041.16;1044288;28;20025;-70
2021/04/26 02:20:56;;;;;;;10.13;5.50;;;;;;;4.24;70.15;96038.03;1046554;28;20025;-70
2021/04/26 02:21:27;;;;;;;12.97;5.80;;;;;;;4.18;70.50;96039.75;1048416;28;20025;-70
2021/04/26 02:21:57;;;;;;;8.97;5.00;;;;;;;4.22;69.96;96040.94;1048676;28;20031;-70
2021/04/26 02:22:28;;;;;;;10.67;5.30;;;;;;;4.20;70.42;96039.53;1048402;28;20040;-70
2021/04/26 02:22:58;;;;;;;9.83;5.57;;;;;;;4.16;70.27;96040.00;1048267;28;20385;-70
2021/04/26 02:23:30;;;;;;;11.47;5.17;;;;;;;4.13;70.36;96043.09;1048398;28;20090;-70
2021/04/26 02:24:01;;;;;;;9.93;5.07;;;;;;;4.18;70.50;96040.56;1048297;28;20078;-70
2021/04/26 02:24:31;;;;;;;10.83;5.57;;;;;;;4.21;70.43;96041.16;1048394;28;20451;-70
2021/04/26 02:25:03;;;;;;;10.83;5.40;;;;;;;4.20;70.27;96042.16;1048368;28;20021;-70
2021/04/26 02:25:34;;;;;;;12.77;5.50;;;;;;;4.21;70.27;96041.97;1048632;28;20028;-70
2021/04/26 02:26:04;;;;;;;9.13;5.37;;;;;;;4.16;70.47;96041.84;1048529;28;20048;-70
2021/04/26 02:26:35;;;;;;;11.43;5.37;;;;;;;4.13;70.21;96043.09;1048721;28;20028;-70
2021/04/26 02:27:07;;;;;;;12.77;5.13;;;;;;;4.12;70.61;96033.56;1048631;28;20382;-70
2021/04/26 02:27:38;;;;;;;10.45;5.40;;;;;;;4.09;70.88;96044.56;1048704;28;20385;-70
2021/04/26 02:28:08;;;;;;;12.63;4.60;;;;;;;4.13;70.31;96043.09;1048102;28;20021;-71
2021/04/26 02:28:38;;;;;;;13.17;5.37;;;;;;;4.12;70.98;96046.78;1048769;28;20021;-71
2021/04/26 02:29:09;;;;;;;12.77;5.57;;;;;;;4.11;70.47;96044.38;1052602;28;20024;-71
2021/04/26 02:29:39;;;;;;;13.87;5.67;;;;;;;4.10;70.38;96042.75;1052544;28;20016;-70
2021/04/26 02:30:10;;;;;;;10.43;5.23;;;;;;;4.13;70.47;96051.03;1052786;28;20431;-70
2021/04/26 02:30:41;;;;;;;10.80;4.90;;;;;;;4.08;70.30;96050.09;1052776;28;20066;-70
2021/04/26 02:31:14;;;;;;;12.80;5.00;;;;;;;4.11;70.84;96053.09;1052848;28;20020;-70
2021/04/26 02:31:45;;;;;;;12.15;5.30;;;;;;;4.15;70.51;96054.25;1052529;28;20098;-70
2021/04/26 02:32:20;;;;;;;13.63;5.40;;;;;;;4.15;70.34;96056.91;1048330;28;20027;-70
2021/04/26 02:33:06;;;;;;;11.95;5.30;;;;;;;4.18;70.71;96048.50;1048381;28;20024;-70
2021/04/26 02:33:38;;;;;;;14.25;5.70;;;;;;;4.24;70.43;96059.22;1051340;28;20033;-69
2021/04/26 02:34:17;;;;;;;10.40;4.90;;;;;;;4.19;70.21;96051.94;1051256;28;20409;-68
2021/04/26 02:34:49;;;;;;;8.85;4.95;;;;;;;4.11;70.53;96053.09;1048362;28;20035;-69